Página principal
METAR-TAF:

METAR-TAF

Aeroportos :

Base Aérea de Beja

Beja, Portugal

latitude: 38-04-40N, longitude: 007-55-57W, altura: 193 m

Observação actual do tempo

O boletim foi feito há 1 hora e 8 minutos, às 13:00 UTC
Vento 6 kt com direcção variável
Temperatura 36°C
Humidade 19%
Pressão 1020 hPa
Visibilidade 10 km ou mais
sem nuvens abaixo de 1500 metros e sem cumulonimbus

METAR: LPBJ 071300Z VRB06KT CAVOK 36/09 Q1020

Hora: 15:08 (14:08 UTC)

Previsão

O boletim foi feito há 2 horas e 56 minutos, às 11:12 UTC
Previsão válida de 07 às 12 UTC a 08 às 12 UTC
Vento 5 kt de es-sudeste
Visibilidade 10 km ou mais
sem nuvens abaixo de 1500 metros e sem cumulonimbus
Tornando-se
de 07 às 18 UTC a 07 às 20 UTC
Vento 10 kt de sudoeste
Tornando-se
de 07 às 22 UTC a 07 às 24 UTC
Vento 2 kt com direcção variável

TAF: LPBJ 071112Z 0712/0812 12005KT CAVOK BECMG 0718/0720 22010KT BECMG 0722/0724 VRB02KT

Observações e previsões do tempo de mais de 4000 aeroportos (mensagens METAR e TAF).

As estações disponíveis são os pontos amarelos e vermelhos sobre o mapa.

Mova o rato sobre o mapa para ver o nome da estação.

Depois clique no ponto para visualizar as observações e previsões meteorológicas.

Para alterar o mapa : clique nos botões verdes com uma cruz preta para aumentar o zoom; no botão verde com uma pitada de zoom; ou nas setas verdes para mapas adjacentes.


METAR-TAF: